Burt, Illinois
Current Conditions -  °F | °C
As of 2:35 AM on Friday 24 Oct 2014 (Local Time) from KAAA Reporting Station
Overcast Overcast  
Wind Chill: 13°   Ceiling: 2500
Heat Index: 13°   Visibility: 10mi
Dew Point:   Wind: 0mph
Humidity: 76%   Direction: NA
Pressure: 30.05"   Gusts: NA
Location:  40.3088°N, 89.3237°W
Report Text: KAAA 240735Z AUTO 00000KT 10SM OVC025 13/08 A3005 RMK AO2 T01260084
Loading
Personal Weather Stations






























Interactive Weather Map
Tropical Storm Tracking
New forecast layout! Learn more

10-Day Weather Forecast

Advertisements
Track Severe Weather on mobile